ADDS TAF Board (Experimental) INFO Settings
IDs: Format: Expanded Condensed

KEWR - Newark Intl, NJ, US

Issued at 1958 UTC 29 Aug 2015
Updated at: 2329 UTC 29 Aug 2015
Time2251Z 30/00Z 30/01Z 30/02Z 30/03Z 30/04Z 30/05Z 30/06Z 30/07Z 30/08Z 30/09Z 30/10Z 30/11Z 30/12Z
Type OBS PRVL PRVL PRVL PRVL PRVL PRVL PRVL PRVL PRVL PRVL PRVL PRVL PRVL
VIS 10 >6 >6 >6 >6 >6 >6 >6 >6 >6 >6 >6 >6 >6
CIG -- -- -- -- -- -- -- -- -- -- -- -- -- --
Cover SCT SCT SCT SCT SCT SCT SCT SCT SCT SCT SCT SCT SCT SCT
FltCat VFR VFR VFR VFR VFR VFR VFR VFR VFR VFR VFR VFR VFR VFR
WX -- -- -- -- -- -- -- -- -- -- -- -- -- --
WDir 160 160 160 160 240 240 240 240 240 240 240 240 240 240
WSpd 8 11 11 11 6 6 6 6 6 6 6 6 6 6
WGst -- -- -- -- -- -- -- -- -- -- -- -- -- --
R04/22
XWnd -6 -8 -8 -8 3 3 3 3 3 3 3 3 3 3
HWnd -6 -8 -8 -8 -5 -5 -5 -5 -5 -5 -5 -5 -5 -5
R11/29
XWnd -7 -10 -10 -10 -3 -3 -3 -3 -3 -3 -3 -3 -3 -3
HWnd 3 5 5 5 -5 -5 -5 -5 -5 -5 -5 -5 -5 -5

NOTE: TEMPO conditions in [brackets]. Keep in mind TEMPO conditions might be better (lower impact) than prevailing conditions.

Raw TAF
KEWR 291958Z 2920/3024 16011KT P6SM SCT050 SCT250
  FM300300 24006KT P6SM FEW050 SCT100
  FM301900 21011KT P6SM SCT050 BKN100


Raw METAR
KEWR 292251Z 16008KT 10SM FEW065 SCT280 27/16 A3010 RMK AO2 SLP191 T02670156
KEWR 292151Z 17008KT 10SM FEW070 SCT280 27/16 A3010 RMK AO2 SLP191 T02720161
KEWR 292051Z 16011G16KT 10SM FEW070 SCT280 28/16 A3010 RMK AO2 SLP193 T02830156 56018

METAR Board
Radar Display
Forecast Discussion

TAF Board Legend

Potential Impact
Threat None Slight Moderate High
Visibility (sm) ≥5.1 5.1>X≥3 3>X≥1 <1
Ceiling (100 ft) ≥30.1 30.1>X≥10 10>X≥5 <5
Wind Speed (kt) <10 10≤X<20 20≤X<30 ≥30
Wind Gust (kt) <15 15≤X<25 25≤X<35 ≥35
Weather No Wx Reported VCTS,-TS,-FZRA,SN TS,FZRA +TS,+FZRA,+SN